CheckWX is a tool to help pilots better visualize weather data.  It is not intended as a substitute for an official pre-flight weather briefing.

06:22:35 UTC

KMHT METAR
Manchester Airport
Manchester, New Hampshire, USA
Current

30 mins ago

KMHT 230553Z 02014G22KT 10SM OVC013 13/11 A2993 RMK AO2 RAE20 SLP147 P0000 60047 T01280111 10144 20128 56012
Observed
Apr-23 @ 05:53 UTC
Wind
  • 020° at 14 KTS
  • Gusting to 22 KTS
Visibility
10 SM
Flight Rules
MVFR
Cloud Levels
  • Overcast at 1,300' AGL
Temperature
13°C / 55°F
Dewpoint
11°C / 52°F
Humidity
88%
Altimeter
29.93" Hg
Pressure
1013.52 hPa
Current Rain
0.01"
Previous

1 hour ago

KMHT 230453Z 36012KT 4SM -RA BR BKN010 OVC018 13/12 A2994 RMK AO2 SLP152 P0004 T01280117 402110100
Observed
Apr-23 @ 04:53 UTC
Wind
  • 360° at 12 KTS
Visibility
4 SM
Flight Rules
MVFR
Conditions
Light Rain, Mist
Cloud Levels
  • Broken at 1,000' AGL
  • Overcast at 1,800' AGL
Temperature
13°C / 55°F
Dewpoint
12°C / 54°F
Humidity
94%
Altimeter
29.94" Hg
Pressure
1013.92 hPa
Current Rain
0.04"
Previous

2 hours ago

KMHT 230353Z 35013KT 4SM RA BR BKN010 OVC018 13/12 A2995 RMK AO2 SLP154 P0017 T01330122
Observed
Apr-23 @ 03:53 UTC
Wind
  • 350° at 13 KTS
Visibility
4 SM
Flight Rules
MVFR
Conditions
Rain, Mist
Cloud Levels
  • Broken at 1,000' AGL
  • Overcast at 1,800' AGL
Temperature
13°C / 55°F
Dewpoint
12°C / 54°F
Humidity
94%
Altimeter
29.95" Hg
Pressure
1014.22 hPa
Current Rain
0.17"